sensor_id;sensor_type;location;lat;lon;timestamp;P1;durP1;ratioP1;P2;durP2;ratioP2
78778;SDS011;68121;52.404;5.318;2023-04-06T00:02:05;10.52;;;5.00;;
78778;SDS011;68121;52.404;5.318;2023-04-06T00:04:31;11.55;;;5.32;;
78778;SDS011;68121;52.404;5.318;2023-04-06T00:06:57;10.23;;;5.65;;
78778;SDS011;68121;52.404;5.318;2023-04-06T00:09:23;12.82;;;5.63;;
78778;SDS011;68121;52.404;5.318;2023-04-06T00:11:49;13.85;;;5.43;;
78778;SDS011;68121;52.404;5.318;2023-04-06T00:14:15;9.68;;;4.85;;
78778;SDS011;68121;52.404;5.318;2023-04-06T00:16:42;11.93;;;5.57;;
78778;SDS011;68121;52.404;5.318;2023-04-06T00:19:08;7.35;;;4.32;;
78778;SDS011;68121;52.404;5.318;2023-04-06T00:21:34;8.88;;;5.35;;
78778;SDS011;68121;52.404;5.318;2023-04-06T00:24:01;9.77;;;5.65;;
78778;SDS011;68121;52.404;5.318;2023-04-06T00:26:27;8.40;;;5.35;;
78778;SDS011;68121;52.404;5.318;2023-04-06T00:28:53;10.88;;;4.90;;
78778;SDS011;68121;52.404;5.318;2023-04-06T00:31:19;10.70;;;5.40;;
78778;SDS011;68121;52.404;5.318;2023-04-06T00:33:45;9.63;;;5.55;;
78778;SDS011;68121;52.404;5.318;2023-04-06T00:36:11;10.25;;;4.93;;
78778;SDS011;68121;52.404;5.318;2023-04-06T00:38:37;7.65;;;4.88;;
78778;SDS011;68121;52.404;5.318;2023-04-06T00:41:03;8.60;;;5.10;;
78778;SDS011;68121;52.404;5.318;2023-04-06T00:43:30;9.93;;;5.60;;
78778;SDS011;68121;52.404;5.318;2023-04-06T00:45:57;9.93;;;5.38;;
78778;SDS011;68121;52.404;5.318;2023-04-06T00:48:23;11.10;;;5.97;;
78778;SDS011;68121;52.404;5.318;2023-04-06T00:50:49;11.98;;;5.80;;
78778;SDS011;68121;52.404;5.318;2023-04-06T00:53:15;11.10;;;5.10;;
78778;SDS011;68121;52.404;5.318;2023-04-06T00:55:42;10.80;;;5.10;;
78778;SDS011;68121;52.404;5.318;2023-04-06T00:58:08;8.00;;;4.82;;
78778;SDS011;68121;52.404;5.318;2023-04-06T01:00:35;6.90;;;4.65;;
78778;SDS011;68121;52.404;5.318;2023-04-06T01:03:01;8.60;;;5.07;;
78778;SDS011;68121;52.404;5.318;2023-04-06T01:05:27;10.10;;;5.05;;
78778;SDS011;68121;52.404;5.318;2023-04-06T01:07:53;9.65;;;5.18;;
78778;SDS011;68121;52.404;5.318;2023-04-06T01:10:25;8.75;;;5.13;;
78778;SDS011;68121;52.404;5.318;2023-04-06T01:12:52;11.05;;;4.85;;
78778;SDS011;68121;52.404;5.318;2023-04-06T01:15:19;7.90;;;4.47;;
78778;SDS011;68121;52.404;5.318;2023-04-06T01:17:46;10.52;;;4.90;;
78778;SDS011;68121;52.404;5.318;2023-04-06T01:20:12;9.98;;;4.97;;
78778;SDS011;68121;52.404;5.318;2023-04-06T01:22:38;9.73;;;4.55;;
78778;SDS011;68121;52.404;5.318;2023-04-06T01:25:05;10.02;;;4.90;;
78778;SDS011;68121;52.404;5.318;2023-04-06T01:27:31;8.77;;;4.68;;
78778;SDS011;68121;52.404;5.318;2023-04-06T01:29:57;7.15;;;3.90;;
78778;SDS011;68121;52.404;5.318;2023-04-06T01:32:23;10.13;;;4.95;;
78778;SDS011;68121;52.404;5.318;2023-04-06T01:34:49;7.88;;;4.20;;
78778;SDS011;68121;52.404;5.318;2023-04-06T01:37:16;6.82;;;4.82;;
78778;SDS011;68121;52.404;5.318;2023-04-06T01:39:43;7.65;;;4.35;;
78778;SDS011;68121;52.404;5.318;2023-04-06T01:42:10;9.23;;;5.03;;
78778;SDS011;68121;52.404;5.318;2023-04-06T01:44:36;12.30;;;5.78;;
78778;SDS011;68121;52.404;5.318;2023-04-06T01:47:02;7.53;;;4.55;;
78778;SDS011;68121;52.404;5.318;2023-04-06T01:49:28;9.48;;;4.78;;
78778;SDS011;68121;52.404;5.318;2023-04-06T01:51:55;8.95;;;4.65;;
78778;SDS011;68121;52.404;5.318;2023-04-06T01:54:21;10.77;;;4.70;;
78778;SDS011;68121;52.404;5.318;2023-04-06T01:56:47;7.68;;;4.32;;
78778;SDS011;68121;52.404;5.318;2023-04-06T01:59:15;11.55;;;4.60;;
78778;SDS011;68121;52.404;5.318;2023-04-06T02:01:41;7.32;;;4.07;;
78778;SDS011;68121;52.404;5.318;2023-04-06T02:04:07;9.73;;;5.50;;
78778;SDS011;68121;52.404;5.318;2023-04-06T02:06:33;11.70;;;4.82;;
78778;SDS011;68121;52.404;5.318;2023-04-06T02:08:59;9.45;;;4.72;;
78778;SDS011;68121;52.404;5.318;2023-04-06T02:11:25;9.95;;;4.38;;
78778;SDS011;68121;52.404;5.318;2023-04-06T02:13:51;8.13;;;4.57;;
78778;SDS011;68121;52.404;5.318;2023-04-06T02:16:17;5.40;;;3.97;;
78778;SDS011;68121;52.404;5.318;2023-04-06T02:18:43;8.98;;;4.72;;
78778;SDS011;68121;52.404;5.318;2023-04-06T02:21:10;10.38;;;4.90;;
78778;SDS011;68121;52.404;5.318;2023-04-06T02:23:36;8.73;;;5.05;;
78778;SDS011;68121;52.404;5.318;2023-04-06T02:26:03;9.48;;;4.68;;
78778;SDS011;68121;52.404;5.318;2023-04-06T02:28:29;9.48;;;5.22;;
78778;SDS011;68121;52.404;5.318;2023-04-06T02:30:55;6.90;;;4.35;;
78778;SDS011;68121;52.404;5.318;2023-04-06T02:33:21;7.82;;;4.95;;
78778;SDS011;68121;52.404;5.318;2023-04-06T02:35:47;9.48;;;5.05;;
78778;SDS011;68121;52.404;5.318;2023-04-06T02:38:13;9.35;;;5.00;;
78778;SDS011;68121;52.404;5.318;2023-04-06T02:40:39;10.68;;;4.70;;
78778;SDS011;68121;52.404;5.318;2023-04-06T02:43:06;9.85;;;4.63;;
78778;SDS011;68121;52.404;5.318;2023-04-06T02:45:32;9.30;;;4.25;;
78778;SDS011;68121;52.404;5.318;2023-04-06T02:47:58;10.15;;;4.90;;
78778;SDS011;68121;52.404;5.318;2023-04-06T02:50:24;8.38;;;5.03;;
78778;SDS011;68121;52.404;5.318;2023-04-06T02:52:51;12.10;;;5.57;;
78778;SDS011;68121;52.404;5.318;2023-04-06T02:55:18;9.60;;;5.03;;
78778;SDS011;68121;52.404;5.318;2023-04-06T02:57:45;6.82;;;4.38;;
78778;SDS011;68121;52.404;5.318;2023-04-06T03:00:11;8.93;;;5.13;;
78778;SDS011;68121;52.404;5.318;2023-04-06T03:02:38;9.73;;;4.18;;
78778;SDS011;68121;52.404;5.318;2023-04-06T03:05:04;9.23;;;4.97;;
78778;SDS011;68121;52.404;5.318;2023-04-06T03:07:30;9.70;;;4.97;;
78778;SDS011;68121;52.404;5.318;2023-04-06T03:09:56;9.35;;;4.90;;
78778;SDS011;68121;52.404;5.318;2023-04-06T03:12:22;8.93;;;4.95;;
78778;SDS011;68121;52.404;5.318;2023-04-06T03:14:48;8.70;;;4.82;;
78778;SDS011;68121;52.404;5.318;2023-04-06T03:17:14;10.38;;;5.50;;
78778;SDS011;68121;52.404;5.318;2023-04-06T03:19:41;9.38;;;5.35;;
78778;SDS011;68121;52.404;5.318;2023-04-06T03:22:07;7.80;;;4.57;;
78778;SDS011;68121;52.404;5.318;2023-04-06T03:24:33;7.13;;;4.25;;
78778;SDS011;68121;52.404;5.318;2023-04-06T03:26:59;8.57;;;4.97;;
78778;SDS011;68121;52.404;5.318;2023-04-06T03:29:25;10.52;;;4.95;;
78778;SDS011;68121;52.404;5.318;2023-04-06T03:31:52;9.90;;;4.97;;
78778;SDS011;68121;52.404;5.318;2023-04-06T03:34:18;11.35;;;5.53;;
78778;SDS011;68121;52.404;5.318;2023-04-06T03:36:45;11.30;;;5.68;;
78778;SDS011;68121;52.404;5.318;2023-04-06T03:39:11;13.13;;;5.10;;
78778;SDS011;68121;52.404;5.318;2023-04-06T03:41:37;9.73;;;4.85;;
78778;SDS011;68121;52.404;5.318;2023-04-06T03:44:04;10.88;;;5.22;;
78778;SDS011;68121;52.404;5.318;2023-04-06T03:46:31;10.90;;;4.75;;
78778;SDS011;68121;52.404;5.318;2023-04-06T03:48:57;10.40;;;5.60;;
78778;SDS011;68121;52.404;5.318;2023-04-06T03:51:23;11.30;;;4.80;;
78778;SDS011;68121;52.404;5.318;2023-04-06T03:53:49;9.43;;;5.18;;
78778;SDS011;68121;52.404;5.318;2023-04-06T03:56:15;11.75;;;5.88;;
78778;SDS011;68121;52.404;5.318;2023-04-06T03:58:41;9.93;;;5.30;;
78778;SDS011;68121;52.404;5.318;2023-04-06T04:01:07;9.98;;;5.32;;
78778;SDS011;68121;52.404;5.318;2023-04-06T04:03:33;8.45;;;5.13;;
78778;SDS011;68121;52.404;5.318;2023-04-06T04:05:59;10.82;;;5.65;;
78778;SDS011;68121;52.404;5.318;2023-04-06T04:08:25;10.15;;;5.45;;
78778;SDS011;68121;52.404;5.318;2023-04-06T04:10:51;10.52;;;5.40;;
78778;SDS011;68121;52.404;5.318;2023-04-06T04:13:17;11.63;;;5.30;;
78778;SDS011;68121;52.404;5.318;2023-04-06T04:15:44;12.65;;;6.00;;
78778;SDS011;68121;52.404;5.318;2023-04-06T04:18:10;11.55;;;5.40;;
78778;SDS011;68121;52.404;5.318;2023-04-06T04:20:36;10.32;;;5.75;;
78778;SDS011;68121;52.404;5.318;2023-04-06T04:23:02;10.38;;;5.35;;
78778;SDS011;68121;52.404;5.318;2023-04-06T04:25:28;12.45;;;5.88;;
78778;SDS011;68121;52.404;5.318;2023-04-06T04:27:54;12.95;;;5.07;;
78778;SDS011;68121;52.404;5.318;2023-04-06T04:30:20;9.77;;;5.95;;
78778;SDS011;68121;52.404;5.318;2023-04-06T04:32:46;12.20;;;5.90;;
78778;SDS011;68121;52.404;5.318;2023-04-06T04:35:12;12.10;;;6.00;;
78778;SDS011;68121;52.404;5.318;2023-04-06T04:37:40;9.40;;;5.35;;
78778;SDS011;68121;52.404;5.318;2023-04-06T04:40:06;10.02;;;5.75;;
78778;SDS011;68121;52.404;5.318;2023-04-06T04:42:33;10.30;;;6.03;;
78778;SDS011;68121;52.404;5.318;2023-04-06T04:44:59;11.77;;;6.22;;
78778;SDS011;68121;52.404;5.318;2023-04-06T04:47:25;11.88;;;5.85;;
78778;SDS011;68121;52.404;5.318;2023-04-06T04:49:51;8.55;;;5.15;;
78778;SDS011;68121;52.404;5.318;2023-04-06T04:52:17;9.77;;;5.88;;
78778;SDS011;68121;52.404;5.318;2023-04-06T04:54:43;12.52;;;5.85;;
78778;SDS011;68121;52.404;5.318;2023-04-06T04:57:09;7.30;;;4.85;;
78778;SDS011;68121;52.404;5.318;2023-04-06T04:59:36;9.98;;;4.68;;
78778;SDS011;68121;52.404;5.318;2023-04-06T05:02:02;9.82;;;5.47;;
78778;SDS011;68121;52.404;5.318;2023-04-06T05:04:28;10.18;;;6.63;;
78778;SDS011;68121;52.404;5.318;2023-04-06T05:07:04;9.38;;;5.20;;
78778;SDS011;68121;52.404;5.318;2023-04-06T05:09:33;10.85;;;5.00;;
78778;SDS011;68121;52.404;5.318;2023-04-06T05:12:00;13.05;;;6.40;;
78778;SDS011;68121;52.404;5.318;2023-04-06T05:14:26;11.57;;;5.53;;
78778;SDS011;68121;52.404;5.318;2023-04-06T05:16:53;12.05;;;5.95;;
78778;SDS011;68121;52.404;5.318;2023-04-06T05:19:19;11.88;;;6.05;;
78778;SDS011;68121;52.404;5.318;2023-04-06T05:21:46;10.00;;;5.32;;
78778;SDS011;68121;52.404;5.318;2023-04-06T05:24:12;13.45;;;5.75;;
78778;SDS011;68121;52.404;5.318;2023-04-06T05:26:38;13.95;;;6.88;;
78778;SDS011;68121;52.404;5.318;2023-04-06T05:29:04;12.38;;;6.15;;
78778;SDS011;68121;52.404;5.318;2023-04-06T05:31:30;11.85;;;5.47;;
78778;SDS011;68121;52.404;5.318;2023-04-06T05:33:56;11.77;;;6.15;;
78778;SDS011;68121;52.404;5.318;2023-04-06T05:36:23;12.23;;;6.20;;
78778;SDS011;68121;52.404;5.318;2023-04-06T05:38:49;11.48;;;5.85;;
78778;SDS011;68121;52.404;5.318;2023-04-06T05:41:16;10.23;;;5.78;;
78778;SDS011;68121;52.404;5.318;2023-04-06T05:43:42;9.48;;;5.88;;
78778;SDS011;68121;52.404;5.318;2023-04-06T05:46:08;15.43;;;6.57;;
78778;SDS011;68121;52.404;5.318;2023-04-06T05:48:34;16.10;;;6.53;;
78778;SDS011;68121;52.404;5.318;2023-04-06T05:51:00;12.48;;;6.10;;
78778;SDS011;68121;52.404;5.318;2023-04-06T05:53:27;11.20;;;5.63;;
78778;SDS011;68121;52.404;5.318;2023-04-06T05:55:54;14.93;;;6.05;;
78778;SDS011;68121;52.404;5.318;2023-04-06T05:58:20;9.73;;;5.15;;
78778;SDS011;68121;52.404;5.318;2023-04-06T06:00:46;12.75;;;6.45;;
78778;SDS011;68121;52.404;5.318;2023-04-06T06:03:12;13.65;;;6.82;;
78778;SDS011;68121;52.404;5.318;2023-04-06T06:05:38;11.95;;;6.15;;
78778;SDS011;68121;52.404;5.318;2023-04-06T06:08:05;12.25;;;7.00;;
78778;SDS011;68121;52.404;5.318;2023-04-06T06:10:31;15.30;;;6.47;;
78778;SDS011;68121;52.404;5.318;2023-04-06T06:12:57;14.13;;;6.32;;
78778;SDS011;68121;52.404;5.318;2023-04-06T06:15:23;12.48;;;6.63;;
78778;SDS011;68121;52.404;5.318;2023-04-06T06:17:49;14.18;;;6.88;;
78778;SDS011;68121;52.404;5.318;2023-04-06T06:20:15;12.80;;;6.72;;
78778;SDS011;68121;52.404;5.318;2023-04-06T06:22:41;10.98;;;6.38;;
78778;SDS011;68121;52.404;5.318;2023-04-06T06:25:07;12.43;;;6.75;;
78778;SDS011;68121;52.404;5.318;2023-04-06T06:27:33;12.70;;;7.15;;
78778;SDS011;68121;52.404;5.318;2023-04-06T06:29:59;12.30;;;6.82;;
78778;SDS011;68121;52.404;5.318;2023-04-06T06:32:25;16.00;;;7.38;;
78778;SDS011;68121;52.404;5.318;2023-04-06T06:34:51;12.32;;;6.32;;
78778;SDS011;68121;52.404;5.318;2023-04-06T06:37:17;16.70;;;7.10;;
78778;SDS011;68121;52.404;5.318;2023-04-06T06:39:43;14.63;;;8.00;;
78778;SDS011;68121;52.404;5.318;2023-04-06T06:42:10;17.02;;;7.63;;
78778;SDS011;68121;52.404;5.318;2023-04-06T06:44:36;14.88;;;6.88;;
78778;SDS011;68121;52.404;5.318;2023-04-06T06:47:02;14.32;;;8.00;;
78778;SDS011;68121;52.404;5.318;2023-04-06T06:49:28;18.50;;;7.97;;
78778;SDS011;68121;52.404;5.318;2023-04-06T06:51:54;14.65;;;7.32;;
78778;SDS011;68121;52.404;5.318;2023-04-06T06:54:20;18.95;;;8.23;;
78778;SDS011;68121;52.404;5.318;2023-04-06T06:56:46;18.75;;;8.43;;
78778;SDS011;68121;52.404;5.318;2023-04-06T06:59:12;22.15;;;7.13;;
78778;SDS011;68121;52.404;5.318;2023-04-06T07:01:38;16.83;;;8.20;;
78778;SDS011;68121;52.404;5.318;2023-04-06T07:04:04;13.85;;;7.90;;
78778;SDS011;68121;52.404;5.318;2023-04-06T07:06:30;13.75;;;8.18;;
78778;SDS011;68121;52.404;5.318;2023-04-06T07:08:56;14.65;;;7.78;;
78778;SDS011;68121;52.404;5.318;2023-04-06T07:11:22;16.60;;;8.10;;
78778;SDS011;68121;52.404;5.318;2023-04-06T07:13:48;19.90;;;8.27;;
78778;SDS011;68121;52.404;5.318;2023-04-06T07:16:15;13.32;;;7.43;;
78778;SDS011;68121;52.404;5.318;2023-04-06T07:18:41;16.95;;;8.73;;
78778;SDS011;68121;52.404;5.318;2023-04-06T07:21:07;19.92;;;8.98;;
78778;SDS011;68121;52.404;5.318;2023-04-06T07:23:33;17.25;;;8.60;;
78778;SDS011;68121;52.404;5.318;2023-04-06T07:25:59;20.80;;;9.38;;
78778;SDS011;68121;52.404;5.318;2023-04-06T07:28:25;15.88;;;8.85;;
78778;SDS011;68121;52.404;5.318;2023-04-06T07:30:51;16.83;;;9.00;;
78778;SDS011;68121;52.404;5.318;2023-04-06T07:33:19;15.88;;;9.00;;
78778;SDS011;68121;52.404;5.318;2023-04-06T07:35:45;18.45;;;8.23;;
78778;SDS011;68121;52.404;5.318;2023-04-06T07:38:11;23.20;;;10.43;;
78778;SDS011;68121;52.404;5.318;2023-04-06T07:40:38;16.10;;;8.82;;
78778;SDS011;68121;52.404;5.318;2023-04-06T07:43:04;16.17;;;7.30;;
78778;SDS011;68121;52.404;5.318;2023-04-06T07:45:30;18.23;;;8.98;;
78778;SDS011;68121;52.404;5.318;2023-04-06T07:47:56;19.52;;;9.50;;
78778;SDS011;68121;52.404;5.318;2023-04-06T07:50:23;20.85;;;8.70;;
78778;SDS011;68121;52.404;5.318;2023-04-06T07:52:49;23.63;;;10.05;;
78778;SDS011;68121;52.404;5.318;2023-04-06T07:55:15;19.80;;;8.93;;
78778;SDS011;68121;52.404;5.318;2023-04-06T07:57:41;20.60;;;9.93;;
78778;SDS011;68121;52.404;5.318;2023-04-06T08:00:08;17.55;;;8.52;;
78778;SDS011;68121;52.404;5.318;2023-04-06T08:02:35;17.63;;;9.15;;
78778;SDS011;68121;52.404;5.318;2023-04-06T08:05:03;11.82;;;6.18;;
78778;SDS011;68121;52.404;5.318;2023-04-06T08:07:29;18.25;;;10.00;;
78778;SDS011;68121;52.404;5.318;2023-04-06T08:09:55;19.65;;;9.35;;
78778;SDS011;68121;52.404;5.318;2023-04-06T08:12:21;15.95;;;8.40;;
78778;SDS011;68121;52.404;5.318;2023-04-06T08:14:48;27.77;;;11.23;;
78778;SDS011;68121;52.404;5.318;2023-04-06T08:17:14;17.45;;;9.18;;
78778;SDS011;68121;52.404;5.318;2023-04-06T08:19:42;20.45;;;9.88;;
78778;SDS011;68121;52.404;5.318;2023-04-06T08:22:09;18.52;;;9.57;;
78778;SDS011;68121;52.404;5.318;2023-04-06T08:24:36;21.50;;;9.55;;
78778;SDS011;68121;52.404;5.318;2023-04-06T08:27:02;20.63;;;9.68;;
78778;SDS011;68121;52.404;5.318;2023-04-06T08:29:29;20.67;;;9.70;;
78778;SDS011;68121;52.404;5.318;2023-04-06T08:31:55;21.80;;;10.55;;
78778;SDS011;68121;52.404;5.318;2023-04-06T08:34:21;21.38;;;10.57;;
78778;SDS011;68121;52.404;5.318;2023-04-06T08:36:48;22.75;;;10.63;;
78778;SDS011;68121;52.404;5.318;2023-04-06T08:39:14;18.65;;;9.95;;
78778;SDS011;68121;52.404;5.318;2023-04-06T08:41:43;19.67;;;10.60;;
78778;SDS011;68121;52.404;5.318;2023-04-06T08:44:09;20.88;;;11.27;;
78778;SDS011;68121;52.404;5.318;2023-04-06T08:46:36;19.00;;;10.05;;
78778;SDS011;68121;52.404;5.318;2023-04-06T08:49:03;22.35;;;10.98;;
78778;SDS011;68121;52.404;5.318;2023-04-06T08:51:32;20.88;;;10.57;;
78778;SDS011;68121;52.404;5.318;2023-04-06T08:53:58;21.80;;;10.88;;
78778;SDS011;68121;52.404;5.318;2023-04-06T08:56:25;20.92;;;11.15;;
78778;SDS011;68121;52.404;5.318;2023-04-06T08:58:53;24.20;;;11.57;;
78778;SDS011;68121;52.404;5.318;2023-04-06T09:01:21;21.30;;;10.30;;
78778;SDS011;68121;52.404;5.318;2023-04-06T09:03:49;20.42;;;10.10;;
78778;SDS011;68121;52.404;5.318;2023-04-06T09:06:16;25.98;;;12.43;;
78778;SDS011;68121;52.404;5.318;2023-04-06T09:08:43;24.17;;;11.30;;
78778;SDS011;68121;52.404;5.318;2023-04-06T09:11:09;20.05;;;11.30;;
78778;SDS011;68121;52.404;5.318;2023-04-06T09:13:49;22.08;;;10.95;;
78778;SDS011;68121;52.404;5.318;2023-04-06T09:16:16;23.33;;;11.45;;
78778;SDS011;68121;52.404;5.318;2023-04-06T09:18:43;22.05;;;10.73;;
78778;SDS011;68121;52.404;5.318;2023-04-06T09:21:11;22.58;;;11.68;;
78778;SDS011;68121;52.404;5.318;2023-04-06T09:23:38;22.17;;;11.23;;
78778;SDS011;68121;52.404;5.318;2023-04-06T09:26:05;22.65;;;10.68;;
78778;SDS011;68121;52.404;5.318;2023-04-06T09:31:20;19.52;;;9.18;;
78778;SDS011;68121;52.404;5.318;2023-04-06T09:33:48;17.92;;;9.40;;
78778;SDS011;68121;52.404;5.318;2023-04-06T09:36:15;23.88;;;11.18;;
78778;SDS011;68121;52.404;5.318;2023-04-06T09:38:51;20.15;;;10.43;;
78778;SDS011;68121;52.404;5.318;2023-04-06T09:41:26;18.77;;;10.43;;
78778;SDS011;68121;52.404;5.318;2023-04-06T09:44:03;25.27;;;11.30;;
78778;SDS011;68121;52.404;5.318;2023-04-06T09:46:36;21.15;;;11.82;;
78778;SDS011;68121;52.404;5.318;2023-04-06T09:49:05;23.33;;;11.60;;
78778;SDS011;68121;52.404;5.318;2023-04-06T09:51:39;21.60;;;10.65;;
78778;SDS011;68121;52.404;5.318;2023-04-06T09:54:07;23.05;;;11.82;;
78778;SDS011;68121;52.404;5.318;2023-04-06T09:56:38;23.67;;;13.23;;
78778;SDS011;68121;52.404;5.318;2023-04-06T09:59:56;18.13;;;10.00;;
78778;SDS011;68121;52.404;5.318;2023-04-06T10:08:12;25.20;;;13.38;;
78778;SDS011;68121;52.404;5.318;2023-04-06T10:10:39;25.90;;;12.60;;
78778;SDS011;68121;52.404;5.318;2023-04-06T10:13:05;28.60;;;12.93;;
78778;SDS011;68121;52.404;5.318;2023-04-06T10:15:33;22.00;;;10.75;;
78778;SDS011;68121;52.404;5.318;2023-04-06T10:17:59;26.48;;;13.15;;
78778;SDS011;68121;52.404;5.318;2023-04-06T10:20:30;21.58;;;10.90;;
78778;SDS011;68121;52.404;5.318;2023-04-06T10:23:15;25.85;;;12.77;;
78778;SDS011;68121;52.404;5.318;2023-04-06T10:25:55;24.23;;;10.35;;
78778;SDS011;68121;52.404;5.318;2023-04-06T10:28:23;19.60;;;9.45;;
78778;SDS011;68121;52.404;5.318;2023-04-06T10:30:56;20.17;;;9.88;;
78778;SDS011;68121;52.404;5.318;2023-04-06T10:33:27;14.35;;;7.88;;
78778;SDS011;68121;52.404;5.318;2023-04-06T10:35:54;16.85;;;8.70;;
78778;SDS011;68121;52.404;5.318;2023-04-06T10:38:38;15.88;;;8.50;;
78778;SDS011;68121;52.404;5.318;2023-04-06T10:41:09;13.07;;;6.10;;
78778;SDS011;68121;52.404;5.318;2023-04-06T10:43:36;17.27;;;7.55;;
78778;SDS011;68121;52.404;5.318;2023-04-06T10:46:04;16.42;;;8.48;;
78778;SDS011;68121;52.404;5.318;2023-04-06T10:48:38;17.40;;;8.13;;
78778;SDS011;68121;52.404;5.318;2023-04-06T10:51:12;14.18;;;7.53;;
78778;SDS011;68121;52.404;5.318;2023-04-06T10:53:41;10.93;;;6.30;;
78778;SDS011;68121;52.404;5.318;2023-04-06T10:56:13;17.48;;;7.78;;
78778;SDS011;68121;52.404;5.318;2023-04-06T10:58:44;15.02;;;7.72;;
78778;SDS011;68121;52.404;5.318;2023-04-06T11:01:12;13.80;;;5.90;;
78778;SDS011;68121;52.404;5.318;2023-04-06T11:03:43;9.02;;;5.03;;
78778;SDS011;68121;52.404;5.318;2023-04-06T11:06:17;10.77;;;5.10;;
78778;SDS011;68121;52.404;5.318;2023-04-06T11:08:47;9.63;;;4.80;;
78778;SDS011;68121;52.404;5.318;2023-04-06T11:11:14;8.98;;;5.03;;
78778;SDS011;68121;52.404;5.318;2023-04-06T11:16:18;8.38;;;4.40;;
78778;SDS011;68121;52.404;5.318;2023-04-06T11:18:55;5.10;;;3.00;;
78778;SDS011;68121;52.404;5.318;2023-04-06T11:21:32;6.60;;;3.22;;
78778;SDS011;68121;52.404;5.318;2023-04-06T11:26:40;4.03;;;2.40;;
78778;SDS011;68121;52.404;5.318;2023-04-06T11:29:09;4.95;;;2.10;;
78778;SDS011;68121;52.404;5.318;2023-04-06T11:32:19;3.38;;;1.60;;
78778;SDS011;68121;52.404;5.318;2023-04-06T11:34:28;1.88;;;0.93;;
78778;SDS011;68121;52.404;5.318;2023-04-06T11:36:56;3.70;;;1.23;;
78778;SDS011;68121;52.404;5.318;2023-04-06T11:39:23;2.25;;;1.10;;
78778;SDS011;68121;52.404;5.318;2023-04-06T11:41:51;2.60;;;1.38;;
78778;SDS011;68121;52.404;5.318;2023-04-06T11:46:58;2.42;;;1.40;;
78778;SDS011;68121;52.404;5.318;2023-04-06T11:49:28;3.17;;;1.55;;
78778;SDS011;68121;52.404;5.318;2023-04-06T11:51:55;3.40;;;1.88;;
78778;SDS011;68121;52.404;5.318;2023-04-06T11:54:31;3.67;;;1.60;;
78778;SDS011;68121;52.404;5.318;2023-04-06T11:56:58;4.88;;;2.13;;
78778;SDS011;68121;52.404;5.318;2023-04-06T11:59:26;2.95;;;1.85;;
78778;SDS011;68121;52.404;5.318;2023-04-06T12:01:52;4.53;;;2.22;;
78778;SDS011;68121;52.404;5.318;2023-04-06T12:04:19;3.72;;;1.98;;
78778;SDS011;68121;52.404;5.318;2023-04-06T12:06:45;4.35;;;2.33;;
78778;SDS011;68121;52.404;5.318;2023-04-06T12:09:12;2.90;;;1.60;;
78778;SDS011;68121;52.404;5.318;2023-04-06T12:11:38;2.95;;;1.67;;
78778;SDS011;68121;52.404;5.318;2023-04-06T12:14:04;3.10;;;2.08;;
78778;SDS011;68121;52.404;5.318;2023-04-06T12:16:30;4.10;;;2.38;;
78778;SDS011;68121;52.404;5.318;2023-04-06T12:18:57;3.83;;;2.00;;
78778;SDS011;68121;52.404;5.318;2023-04-06T12:21:23;4.85;;;2.83;;
78778;SDS011;68121;52.404;5.318;2023-04-06T12:23:49;7.60;;;3.50;;
78778;SDS011;68121;52.404;5.318;2023-04-06T12:26:15;6.07;;;3.05;;
78778;SDS011;68121;52.404;5.318;2023-04-06T12:28:43;5.50;;;3.28;;
78778;SDS011;68121;52.404;5.318;2023-04-06T12:31:15;7.35;;;3.97;;
78778;SDS011;68121;52.404;5.318;2023-04-06T12:33:46;5.97;;;3.42;;
78778;SDS011;68121;52.404;5.318;2023-04-06T12:36:17;7.70;;;3.33;;
78778;SDS011;68121;52.404;5.318;2023-04-06T12:38:44;6.05;;;3.63;;
78778;SDS011;68121;52.404;5.318;2023-04-06T12:41:12;7.38;;;3.90;;
78778;SDS011;68121;52.404;5.318;2023-04-06T12:43:39;7.90;;;4.13;;
78778;SDS011;68121;52.404;5.318;2023-04-06T12:46:06;7.32;;;3.65;;
78778;SDS011;68121;52.404;5.318;2023-04-06T12:48:32;9.15;;;4.18;;
78778;SDS011;68121;52.404;5.318;2023-04-06T12:50:59;7.88;;;4.40;;
78778;SDS011;68121;52.404;5.318;2023-04-06T12:53:27;6.35;;;3.53;;
78778;SDS011;68121;52.404;5.318;2023-04-06T12:55:53;6.28;;;3.80;;
78778;SDS011;68121;52.404;5.318;2023-04-06T12:58:20;5.88;;;3.53;;
78778;SDS011;68121;52.404;5.318;2023-04-06T13:00:47;9.00;;;4.60;;
78778;SDS011;68121;52.404;5.318;2023-04-06T13:03:13;9.05;;;5.30;;
78778;SDS011;68121;52.404;5.318;2023-04-06T13:05:43;9.85;;;5.57;;
78778;SDS011;68121;52.404;5.318;2023-04-06T13:08:11;8.35;;;4.45;;
78778;SDS011;68121;52.404;5.318;2023-04-06T13:10:37;10.40;;;5.20;;
78778;SDS011;68121;52.404;5.318;2023-04-06T13:13:03;10.23;;;4.75;;
78778;SDS011;68121;52.404;5.318;2023-04-06T13:15:31;10.77;;;5.20;;
78778;SDS011;68121;52.404;5.318;2023-04-06T13:17:57;8.63;;;4.60;;
78778;SDS011;68121;52.404;5.318;2023-04-06T13:20:23;11.73;;;6.05;;
78778;SDS011;68121;52.404;5.318;2023-04-06T13:22:59;10.80;;;6.10;;
78778;SDS011;68121;52.404;5.318;2023-04-06T13:25:25;8.38;;;4.80;;
78778;SDS011;68121;52.404;5.318;2023-04-06T13:27:51;9.45;;;5.18;;
78778;SDS011;68121;52.404;5.318;2023-04-06T13:30:17;8.00;;;4.80;;
78778;SDS011;68121;52.404;5.318;2023-04-06T13:32:43;11.23;;;5.88;;
78778;SDS011;68121;52.404;5.318;2023-04-06T13:35:09;11.32;;;5.38;;
78778;SDS011;68121;52.404;5.318;2023-04-06T13:37:38;9.52;;;5.15;;
78778;SDS011;68121;52.404;5.318;2023-04-06T13:40:04;12.23;;;6.95;;
78778;SDS011;68121;52.404;5.318;2023-04-06T13:42:31;10.55;;;6.22;;
78778;SDS011;68121;52.404;5.318;2023-04-06T13:44:57;9.80;;;5.57;;
78778;SDS011;68121;52.404;5.318;2023-04-06T13:47:24;8.25;;;4.38;;
78778;SDS011;68121;52.404;5.318;2023-04-06T13:49:50;9.30;;;5.22;;
78778;SDS011;68121;52.404;5.318;2023-04-06T13:52:19;8.45;;;5.05;;
78778;SDS011;68121;52.404;5.318;2023-04-06T13:54:45;9.57;;;5.45;;
78778;SDS011;68121;52.404;5.318;2023-04-06T13:57:12;12.05;;;5.50;;
78778;SDS011;68121;52.404;5.318;2023-04-06T13:59:38;8.73;;;4.85;;
78778;SDS011;68121;52.404;5.318;2023-04-06T14:02:06;13.18;;;6.10;;
78778;SDS011;68121;52.404;5.318;2023-04-06T14:04:33;8.90;;;4.78;;
78778;SDS011;68121;52.404;5.318;2023-04-06T14:07:00;7.95;;;5.18;;
78778;SDS011;68121;52.404;5.318;2023-04-06T14:09:27;10.30;;;5.20;;
78778;SDS011;68121;52.404;5.318;2023-04-06T14:11:54;9.95;;;4.82;;
78778;SDS011;68121;52.404;5.318;2023-04-06T14:14:20;11.00;;;5.55;;
78778;SDS011;68121;52.404;5.318;2023-04-06T14:16:47;11.57;;;5.60;;
78778;SDS011;68121;52.404;5.318;2023-04-06T14:19:15;10.25;;;5.88;;
78778;SDS011;68121;52.404;5.318;2023-04-06T14:21:43;11.32;;;5.28;;
78778;SDS011;68121;52.404;5.318;2023-04-06T14:24:10;9.90;;;5.75;;
78778;SDS011;68121;52.404;5.318;2023-04-06T14:26:38;8.27;;;4.85;;
78778;SDS011;68121;52.404;5.318;2023-04-06T14:29:04;9.98;;;5.93;;
78778;SDS011;68121;52.404;5.318;2023-04-06T14:31:31;10.60;;;5.63;;
78778;SDS011;68121;52.404;5.318;2023-04-06T14:33:58;9.68;;;4.68;;
78778;SDS011;68121;52.404;5.318;2023-04-06T14:36:26;9.10;;;4.80;;
78778;SDS011;68121;52.404;5.318;2023-04-06T14:38:56;10.80;;;6.40;;
78778;SDS011;68121;52.404;5.318;2023-04-06T14:41:23;10.30;;;5.03;;
78778;SDS011;68121;52.404;5.318;2023-04-06T14:43:50;9.25;;;5.20;;
78778;SDS011;68121;52.404;5.318;2023-04-06T14:46:18;8.73;;;5.18;;
78778;SDS011;68121;52.404;5.318;2023-04-06T14:48:44;12.10;;;6.05;;
78778;SDS011;68121;52.404;5.318;2023-04-06T14:51:10;8.13;;;5.43;;
78778;SDS011;68121;52.404;5.318;2023-04-06T14:53:37;10.48;;;5.55;;
78778;SDS011;68121;52.404;5.318;2023-04-06T14:56:03;10.68;;;6.18;;